Time;durP1;ratioP1;P1;durP2;ratioP2;P2;SDS_P1;SDS_P2;PMS_P1;PMS_P2;Temp;Humidity;BMP_temperature;BMP_pressure;BME280_temperature;BME280_humidity;BME280_pressure;Samples;Min_cycle;Max_cycle;Signal;HPM_P1;HPM_P2
2021/11/13 00:00:29;;;;;;;;;9.75;7.25;;;;;21.29;38.43;101107.41;4963274;28;51102;-51
2021/11/13 00:02:55;;;;;;;;;5.25;5.00;;;;;21.27;38.60;101093.84;4964536;28;51110;-50
2021/11/13 00:05:21;;;;;;;;;9.50;8.25;;;;;21.26;38.46;101089.41;4956141;28;51185;-55
2021/11/13 00:07:46;;;;;;;;;5.50;5.50;;;;;21.24;38.45;101083.22;4956122;28;52297;-49
2021/11/13 00:10:15;;;;;;;;;8.00;8.00;;;;;21.23;38.74;101087.03;4962724;28;51033;-51
2021/11/13 00:12:40;;;;;;;;;8.00;6.75;;;;;21.22;38.79;101084.50;4960914;28;50978;-51
2021/11/13 00:15:08;;;;;;;;;6.00;5.00;;;;;21.20;38.52;101076.47;4956026;28;51501;-53
2021/11/13 00:17:34;;;;;;;;;5.25;5.25;;;;;21.20;38.67;101076.47;4957247;28;52579;-51
2021/11/13 00:19:59;;;;;;;;;6.75;5.75;;;;;21.19;38.94;101079.47;4955514;28;51141;-51
2021/11/13 00:22:25;;;;;;;;;4.50;4.50;;;;;21.18;38.51;101078.63;4963130;28;51067;-52
2021/11/13 00:24:50;;;;;;;;;6.75;5.00;;;;;21.17;38.88;101082.44;4958559;28;51113;-50
2021/11/13 00:27:16;;;;;;;;;8.00;5.50;;;;;21.16;38.86;101075.25;4969349;28;52679;-52
2021/11/13 00:29:41;;;;;;;;;9.00;6.75;;;;;21.15;39.11;101075.44;4969799;28;51169;-49
2021/11/13 00:32:07;;;;;;;;;8.25;6.50;;;;;21.14;38.69;101060.81;4955444;28;51258;-51
2021/11/13 00:34:34;;;;;;;;;6.25;5.75;;;;;21.14;39.18;101066.31;4958980;28;51035;-48
2021/11/13 00:37:00;;;;;;;;;7.00;7.00;;;;;21.12;38.65;101064.88;4953905;28;52307;-51
2021/11/13 00:39:25;;;;;;;;;6.75;5.00;;;;;21.11;39.02;101066.78;4955908;28;51079;-47
2021/11/13 00:41:51;;;;;;;;;6.25;4.75;;;;;21.11;38.98;101057.66;4958755;28;51261;-51
2021/11/13 00:44:17;;;;;;;;;6.25;6.00;;;;;21.08;39.08;101056.22;4955237;28;52284;-50
2021/11/13 00:46:42;;;;;;;;;9.75;6.00;;;;;21.07;39.18;101057.28;4955263;28;51868;-49
2021/11/13 00:49:09;;;;;;;;;7.50;7.50;;;;;21.07;39.11;101057.28;4965169;28;51451;-52
2021/11/13 00:51:35;;;;;;;;;5.75;4.50;;;;;21.06;39.07;101065.78;4957937;28;51137;-52
2021/11/13 00:54:02;;;;;;;;;7.25;7.25;;;;;21.04;38.88;101063.22;4955322;28;51014;-52
2021/11/13 00:56:28;;;;;;;;;6.75;5.25;;;;;21.04;39.47;101064.06;4958491;28;51219;-53
2021/11/13 00:58:54;;;;;;;;;8.00;5.00;;;;;21.03;39.57;101069.78;4960745;28;51004;-51
2021/11/13 01:01:20;;;;;;;;;7.25;6.75;;;;;21.02;39.28;101068.94;4973938;28;50964;-53
2021/11/13 01:03:45;;;;;;;;;9.75;7.50;;;;;21.01;39.37;101080.19;4960347;28;51295;-53
2021/11/13 01:06:11;;;;;;;;;5.00;5.00;;;;;21.00;39.04;101079.34;4965908;28;51190;-53
2021/11/13 01:08:37;;;;;;;;;6.50;5.75;;;;;20.99;39.15;101071.31;4958798;28;51135;-53
2021/11/13 01:11:03;;;;;;;;;6.25;5.25;;;;;20.98;39.00;101078.72;4955799;28;51284;-51
2021/11/13 01:13:29;;;;;;;;;7.00;6.00;;;;;20.97;39.60;101070.69;4958037;28;51343;-52
2021/11/13 01:15:55;;;;;;;;;8.00;7.25;;;;;20.93;39.26;101070.25;4962664;28;51179;-53
2021/11/13 01:18:21;;;;;;;;;6.00;5.00;;;;;20.93;39.39;101064.75;4960608;28;51134;-51
2021/11/13 01:20:47;;;;;;;;;7.50;5.00;;;;;20.91;38.92;101061.38;4954400;28;51141;-50
2021/11/13 01:23:13;;;;;;;;;6.00;6.00;;;;;20.90;38.89;101069.88;4965218;28;51426;-49
2021/11/13 01:25:38;;;;;;;;;8.50;7.00;;;;;20.89;39.03;101062.66;4966058;28;51209;-51
2021/11/13 01:28:04;;;;;;;;;8.00;6.00;;;;;20.88;39.01;101060.97;4970599;28;51146;-50
2021/11/13 01:30:29;;;;;;;;;7.75;6.50;;;;;20.86;39.58;101061.22;4955052;28;51074;-52
2021/11/13 01:32:55;;;;;;;;;6.50;4.00;;;;;20.86;39.33;101068.63;4955992;28;51284;-52
2021/11/13 01:35:22;;;;;;;;;7.50;6.25;;;;;20.83;39.13;101069.88;4958493;28;51139;-52
2021/11/13 01:37:48;;;;;;;;;9.75;7.25;;;;;20.83;39.15;101060.78;4953875;28;51046;-53
2021/11/13 01:40:18;;;;;;;;;7.00;5.00;;;;;20.81;39.71;101065.66;4954112;28;51337;-49
2021/11/13 01:42:44;;;;;;;;;6.50;6.00;;;;;20.79;39.71;101056.78;4963909;28;51305;-54
2021/11/13 01:45:11;;;;;;;;;3.25;3.25;;;;;20.78;39.16;101068.88;4956028;28;52957;-52
2021/11/13 01:47:38;;;;;;;;;6.50;4.75;;;;;20.75;39.59;101068.25;4958311;28;51071;-50
2021/11/13 01:50:34;;;;;;;;;6.25;5.25;;;;;20.75;39.46;101061.91;4967581;28;51155;-50
2021/11/13 01:53:01;;;;;;;;;4.75;3.50;;;;;20.73;39.35;101058.50;4960825;28;51062;-51
2021/11/13 01:55:29;;;;;;;;;8.50;8.00;;;;;20.72;39.55;101059.56;4960160;28;51951;-49
2021/11/13 01:57:56;;;;;;;;;5.50;5.00;;;;;20.72;39.38;101062.31;4954339;28;51232;-50
2021/11/13 02:00:31;;;;;;;;;6.25;5.50;;;;;20.71;39.36;101061.47;4955141;28;51201;-51
2021/11/13 02:02:57;;;;;;;;;5.25;4.00;;;;;20.69;39.31;101054.50;4958597;28;51296;-53
2021/11/13 02:05:23;;;;;;;;;4.75;4.75;;;;;20.68;39.41;101044.56;4965870;28;51776;-51
2021/11/13 02:07:48;;;;;;;;;7.00;6.00;;;;;20.67;39.54;101053.88;4954944;28;51048;-50
2021/11/13 02:10:17;;;;;;;;;4.75;4.50;;;;;20.66;39.63;101041.19;4970697;28;51331;-48
2021/11/13 02:12:42;;;;;;;;;9.75;6.00;;;;;20.64;39.40;101044.16;4961125;28;51229;-48
2021/11/13 02:15:09;;;;;;;;;3.00;2.75;;;;;20.64;39.74;101044.16;4963995;28;51245;-49
2021/11/13 02:17:35;;;;;;;;;6.00;6.00;;;;;20.63;39.42;101045.19;4956790;28;51022;-48
2021/11/13 02:20:22;;;;;;;;;4.50;4.50;;;;;20.62;39.46;101048.19;4962051;28;51048;-52
2021/11/13 02:22:48;;;;;;;;;7.00;5.75;;;;;20.61;39.53;101041.81;4964490;28;51336;-48
2021/11/13 02:25:16;;;;;;;;;4.75;4.75;;;;;20.61;39.82;101038.22;4969882;28;51087;-51
2021/11/13 02:27:42;;;;;;;;;5.25;4.75;;;;;20.58;39.86;101046.94;4966169;28;51143;-49
2021/11/13 02:30:08;;;;;;;;;4.75;4.25;;;;;20.58;39.61;101045.03;4971323;28;51246;-51
2021/11/13 02:32:33;;;;;;;;;7.00;4.75;;;;;20.57;39.70;101043.34;4965127;28;51246;-48
2021/11/13 02:34:59;;;;;;;;;6.75;5.75;;;;;20.57;39.54;101045.25;4961246;28;51814;-53
2021/11/13 02:37:28;;;;;;;;;5.00;4.50;;;;;20.55;39.51;101045.47;4964645;28;52263;-49
2021/11/13 02:39:54;;;;;;;;;5.75;5.00;;;;;20.55;39.71;101044.63;4958473;28;51205;-52
2021/11/13 02:42:23;;;;;;;;;6.75;5.50;;;;;20.54;39.62;101042.94;4971054;28;51374;-52
2021/11/13 02:44:50;;;;;;;;;6.00;6.00;;;;;20.53;39.48;101042.09;4963505;28;52842;-49
2021/11/13 02:47:16;;;;;;;;;6.00;4.50;;;;;20.52;39.51;101039.53;4961577;28;51580;-52
2021/11/13 02:49:42;;;;;;;;;6.00;5.00;;;;;20.51;39.43;101038.69;4966354;27;51162;-52
2021/11/13 02:52:07;;;;;;;;;6.50;6.25;;;;;20.50;39.93;101039.75;4962313;28;51208;-49
2021/11/13 02:54:33;;;;;;;;;6.00;6.00;;;;;20.49;39.63;101035.31;4961518;28;51366;-51
2021/11/13 02:56:58;;;;;;;;;8.00;4.75;;;;;20.49;39.70;101049.06;4960745;28;51143;-53
2021/11/13 02:59:23;;;;;;;;;6.00;4.50;;;;;20.49;39.79;101023.47;4964469;28;51074;-51
2021/11/13 03:01:49;;;;;;;;;3.75;3.75;;;;;20.49;39.55;101034.47;4962045;28;51241;-49
2021/11/13 03:04:15;;;;;;;;;6.25;4.25;;;;;20.46;39.62;101022.00;4959580;28;51872;-52
2021/11/13 03:06:41;;;;;;;;;6.25;4.25;;;;;20.46;39.63;101033.00;4961734;28;51315;-52
2021/11/13 03:09:06;;;;;;;;;6.00;5.25;;;;;20.45;39.46;101028.56;4960098;28;51080;-49
2021/11/13 03:11:32;;;;;;;;;5.00;4.75;;;;;20.44;39.48;101035.16;4959999;28;51310;-54
2021/11/13 03:13:57;;;;;;;;;6.00;2.50;;;;;20.43;39.77;101034.28;4968312;28;51853;-49
2021/11/13 03:16:23;;;;;;;;;5.00;5.00;;;;;20.42;39.79;101029.84;4961064;28;51307;-50
2021/11/13 03:18:49;;;;;;;;;5.00;5.00;;;;;20.42;39.96;101029.84;4963221;28;51383;-51
2021/11/13 03:21:15;;;;;;;;;8.00;5.75;;;;;20.41;39.86;101032.78;4961791;28;51279;-52
2021/11/13 03:23:46;;;;;;;;;4.50;4.50;;;;;20.41;40.00;101024.53;4960393;28;51933;-51
2021/11/13 03:26:16;;;;;;;;;5.75;5.00;;;;;20.40;39.79;101022.81;4965060;28;51057;-51
2021/11/13 03:28:45;;;;;;;;;5.25;4.75;;;;;20.39;39.67;101018.41;4957379;28;51167;-52
2021/11/13 03:31:11;;;;;;;;;5.75;4.00;;;;;20.38;39.73;101030.47;4958440;28;51168;-52
2021/11/13 03:33:39;;;;;;;;;5.50;5.50;;;;;20.39;39.69;101034.91;4957327;28;51847;-51
2021/11/13 03:36:06;;;;;;;;;5.75;5.75;;;;;20.37;39.96;101023.28;4959465;28;51162;-49
2021/11/13 03:38:32;;;;;;;;;6.00;4.75;;;;;20.36;40.26;101025.19;4961232;28;51153;-51
2021/11/13 03:40:58;;;;;;;;;3.50;3.00;;;;;20.35;40.27;101025.41;4968449;28;51153;-49
2021/11/13 03:43:24;;;;;;;;;5.75;4.00;;;;;20.35;39.95;101019.91;4969254;28;51902;-47
2021/11/13 03:45:50;;;;;;;;;4.00;4.00;;;;;20.34;40.11;101020.97;4966463;28;51127;-50
2021/11/13 03:48:16;;;;;;;;;5.25;4.25;;;;;20.33;39.85;101019.28;4961579;28;51650;-50
2021/11/13 03:50:42;;;;;;;;;3.50;3.50;;;;;20.33;39.88;101017.38;4957522;28;51211;-50
2021/11/13 03:53:08;;;;;;;;;5.00;3.50;;;;;20.32;39.96;101020.31;4965335;28;52501;-51
2021/11/13 03:55:34;;;;;;;;;5.00;4.00;;;;;20.31;40.04;101024.13;4963897;28;51367;-53
2021/11/13 03:57:59;;;;;;;;;5.00;5.00;;;;;20.32;39.73;101025.81;4957873;28;51228;-51
2021/11/13 04:00:26;;;;;;;;;3.00;3.00;;;;;20.31;40.17;101026.88;4957105;28;51548;-52
2021/11/13 04:02:52;;;;;;;;;3.25;3.00;;;;;20.31;40.23;101021.38;4970821;28;51866;-52
2021/11/13 04:05:19;;;;;;;;;4.75;4.75;;;;;20.29;39.91;101024.34;4959793;28;51130;-50
2021/11/13 04:07:44;;;;;;;;;4.00;4.00;;;;;20.29;40.12;101029.84;4961942;28;51129;-51
2021/11/13 04:10:12;;;;;;;;;4.75;4.00;;;;;20.29;39.97;101032.59;4955244;27;51325;-51
2021/11/13 04:12:38;;;;;;;;;6.25;4.00;;;;;20.28;40.30;101027.31;4959554;28;51123;-51
2021/11/13 04:15:06;;;;;;;;;5.50;4.50;;;;;20.27;40.24;101025.63;4954855;28;51120;-52
2021/11/13 04:17:31;;;;;;;;;3.00;3.00;;;;;20.27;40.08;101040.22;4973657;28;51260;-51
2021/11/13 04:19:57;;;;;;;;;4.50;2.75;;;;;20.26;40.23;101037.69;4963558;28;51204;-52
2021/11/13 04:22:22;;;;;;;;;2.75;2.75;;;;;20.25;39.99;101036.00;4957272;28;51854;-48
2021/11/13 04:24:48;;;;;;;;;3.00;3.00;;;;;20.25;39.88;101036.84;4971150;28;51096;-48
2021/11/13 04:27:15;;;;;;;;;3.25;3.25;;;;;20.24;40.32;101037.06;4962992;28;51064;-50
2021/11/13 04:29:42;;;;;;;;;3.75;3.75;;;;;20.24;40.29;101042.59;4959706;28;51086;-52
2021/11/13 04:32:07;;;;;;;;;7.25;4.25;;;;;20.22;40.46;101033.69;4968840;28;51120;-50
2021/11/13 04:34:44;;;;;;;;;5.00;5.00;;;;;20.22;40.07;101030.94;4963134;28;51150;-53
2021/11/13 04:37:15;;;;;;;;;4.00;3.25;;;;;20.21;39.97;101023.72;4968028;28;51217;-50
2021/11/13 04:39:41;;;;;;;;;3.50;3.50;;;;;20.21;40.44;101032.00;4972461;28;51025;-51
2021/11/13 04:42:06;;;;;;;;;4.50;2.00;;;;;20.21;40.03;101026.50;4956115;28;51022;-48
2021/11/13 04:44:32;;;;;;;;;2.75;2.75;;;;;20.21;40.51;101034.75;4960601;28;50924;-53
2021/11/13 04:46:58;;;;;;;;;4.00;3.00;;;;;20.19;40.09;101030.31;4967827;28;51029;-51
2021/11/13 04:49:23;;;;;;;;;3.00;3.00;;;;;20.19;40.12;101029.47;4973423;28;51104;-51
2021/11/13 04:51:48;;;;;;;;;4.00;3.00;;;;;20.18;40.16;101031.38;4956677;28;51302;-50
2021/11/13 04:54:14;;;;;;;;;2.75;2.25;;;;;20.17;40.36;101024.19;4963411;28;51000;-51
2021/11/13 04:56:39;;;;;;;;;4.75;3.75;;;;;20.17;40.40;101026.09;4954441;28;51434;-52
2021/11/13 04:59:06;;;;;;;;;2.25;2.25;;;;;20.15;40.37;101014.47;4955665;28;50916;-52
2021/11/13 05:01:31;;;;;;;;;1.25;1.25;;;;;20.15;40.42;101018.06;4981289;28;53410;-50
2021/11/13 05:03:57;;;;;;;;;1.00;1.00;;;;;20.15;40.19;101022.72;4962690;28;51074;-47
2021/11/13 05:06:23;;;;;;;;;2.50;2.50;;;;;20.14;40.29;101026.53;4957872;28;51056;-52
2021/11/13 05:08:49;;;;;;;;;3.00;3.00;;;;;20.14;40.28;101026.53;4960770;28;51187;-52
2021/11/13 05:11:15;;;;;;;;;1.75;1.75;;;;;20.14;40.51;101034.78;4971733;28;51981;-53
2021/11/13 05:13:41;;;;;;;;;2.00;2.00;;;;;20.13;40.32;101030.34;4970844;28;51077;-51
2021/11/13 05:16:06;;;;;;;;;4.50;2.00;;;;;20.12;40.48;101032.25;4963933;28;51043;-52
2021/11/13 05:18:31;;;;;;;;;1.50;1.50;;;;;20.12;40.63;101029.50;4970531;28;51215;-51
2021/11/13 05:20:57;;;;;;;;;4.50;4.50;;;;;20.11;40.75;101027.81;4966939;28;52659;-53
2021/11/13 05:23:22;;;;;;;;;2.50;2.00;;;;;20.11;40.57;101033.31;4966834;28;51055;-53
2021/11/13 05:25:47;;;;;;;;;2.00;2.00;;;;;20.10;40.25;101031.59;4969049;28;51256;-52
2021/11/13 05:28:13;;;;;;;;;2.50;2.25;;;;;20.10;40.42;101036.25;4969684;28;51940;-52
2021/11/13 05:30:38;;;;;;;;;4.00;2.75;;;;;20.10;40.53;101030.75;4966950;28;51801;-50
2021/11/13 05:33:04;;;;;;;;;4.00;3.00;;;;;20.08;40.20;101033.72;4954935;28;51102;-53
2021/11/13 05:35:30;;;;;;;;;3.25;2.25;;;;;20.08;40.63;101041.13;4964288;27;51357;-51
2021/11/13 05:37:55;;;;;;;;;2.00;2.00;;;;;20.07;40.68;101040.28;4965152;27;51851;-53
2021/11/13 05:40:21;;;;;;;;;2.00;2.00;;;;;20.08;40.68;101043.88;4968612;28;50979;-52
2021/11/13 05:42:49;;;;;;;;;2.50;1.75;;;;;20.06;40.64;101035.84;4963512;28;51383;-53
2021/11/13 05:45:15;;;;;;;;;3.25;3.00;;;;;20.07;40.80;101047.69;4961639;28;51136;-52
2021/11/13 05:47:42;;;;;;;;;4.00;2.00;;;;;20.06;40.50;101048.75;4969298;28;51314;-53
2021/11/13 05:50:10;;;;;;;;;4.00;2.00;;;;;20.06;40.60;101046.00;4970013;28;51327;-54
2021/11/13 05:52:36;;;;;;;;;5.50;3.00;;;;;20.06;40.73;101040.50;4963540;28;51526;-53
2021/11/13 05:55:03;;;;;;;;;3.50;1.50;;;;;20.05;40.51;101034.16;4960459;28;51348;-53
2021/11/13 05:57:28;;;;;;;;;2.00;1.75;;;;;20.06;40.41;101030.34;4966094;28;51181;-52
2021/11/13 05:59:54;;;;;;;;;1.25;1.25;;;;;20.04;40.62;101031.63;4965825;28;51178;-51
2021/11/13 06:02:20;;;;;;;;;2.00;2.00;;;;;20.04;40.42;101040.72;4991776;28;51128;-53
2021/11/13 06:04:45;;;;;;;;;3.00;2.00;;;;;20.03;40.90;101041.78;4963622;28;51093;-50
2021/11/13 06:07:11;;;;;;;;;2.50;2.00;;;;;20.03;40.74;101046.44;4965622;28;51177;-51
2021/11/13 06:09:36;;;;;;;;;2.00;2.00;;;;;20.03;40.52;101043.69;4964542;28;51953;-51
2021/11/13 06:12:02;;;;;;;;;3.00;1.00;;;;;20.03;40.62;101043.69;4970822;28;51327;-50
2021/11/13 06:14:28;;;;;;;;;2.50;1.25;;;;;20.02;40.31;101048.34;4964439;28;51169;-52
2021/11/13 06:16:53;;;;;;;;;2.00;2.00;;;;;20.01;40.62;101052.16;4961749;28;51117;-46
2021/11/13 06:19:18;;;;;;;;;1.00;1.00;;;;;20.01;40.92;101045.78;4966369;28;50927;-48
2021/11/13 06:21:44;;;;;;;;;2.00;1.00;;;;;20.00;40.64;101044.94;4973878;28;51117;-48
2021/11/13 06:24:10;;;;;;;;;2.00;1.00;;;;;19.99;40.84;101046.00;4964286;28;51111;-51
2021/11/13 06:26:35;;;;;;;;;1.75;1.75;;;;;19.99;40.69;101050.66;4973324;28;51334;-53
2021/11/13 06:29:01;;;;;;;;;2.50;1.00;;;;;19.98;40.73;101051.72;4974653;28;51904;-48
2021/11/13 06:31:26;;;;;;;;;2.00;1.25;;;;;19.97;40.48;101056.38;4973762;28;51299;-50
2021/11/13 06:33:52;;;;;;;;;2.25;2.25;;;;;19.97;40.66;101058.28;4960807;28;51172;-52
2021/11/13 06:36:18;;;;;;;;;1.75;0.75;;;;;19.98;40.61;101059.97;4960270;28;51147;-47
2021/11/13 06:38:43;;;;;;;;;2.75;1.25;;;;;19.97;40.87;101061.88;4965458;28;51044;-53
2021/11/13 06:41:08;;;;;;;;;2.75;1.75;;;;;19.97;40.62;101069.28;4972105;28;51174;-51
2021/11/13 06:43:34;;;;;;;;;1.00;1.00;;;;;19.96;40.54;101062.94;4967412;28;51185;-53
2021/11/13 06:46:00;;;;;;;;;1.75;1.00;;;;;19.96;40.70;101073.94;4963978;28;51445;-53
2021/11/13 06:48:25;;;;;;;;;2.00;0.75;;;;;19.94;40.70;101065.06;4963187;28;51729;-51
2021/11/13 06:50:52;;;;;;;;;0.50;0.50;;;;;19.95;40.58;101074.16;4958431;28;51140;-51
2021/11/13 06:53:18;;;;;;;;;1.50;1.50;;;;;19.93;40.60;101079.88;4961976;28;51189;-52
2021/11/13 06:55:44;;;;;;;;;2.00;1.25;;;;;19.94;40.62;101073.31;4956772;28;50933;-54
2021/11/13 06:58:10;;;;;;;;;2.50;1.00;;;;;19.94;40.81;101081.56;4959336;28;51149;-52
2021/11/13 07:00:36;;;;;;;;;1.00;1.00;;;;;19.93;40.81;101079.88;4965193;28;51436;-52
2021/11/13 07:03:02;;;;;;;;;1.00;1.00;;;;;19.93;40.72;101090.88;4995502;28;51220;-52
2021/11/13 07:05:28;;;;;;;;;1.00;1.00;;;;;19.92;40.69;101088.34;4960313;28;51454;-51
2021/11/13 07:07:55;;;;;;;;;0.50;0.25;;;;;19.92;40.81;101089.19;4960450;28;52225;-52
2021/11/13 07:10:21;;;;;;;;;1.00;1.00;;;;;19.92;41.01;101091.94;4955988;28;51161;-54
2021/11/13 07:12:47;;;;;;;;;1.00;1.00;;;;;19.92;40.90;101094.69;4970206;28;51156;-49
2021/11/13 07:15:14;;;;;;;;;0.25;0.25;;;;;19.91;41.09;101095.75;4961617;28;51567;-51
2021/11/13 07:17:40;;;;;;;;;1.00;1.00;;;;;19.90;40.67;101094.00;4964549;28;51155;-52
2021/11/13 07:20:06;;;;;;;;;1.00;1.00;;;;;19.90;40.91;101107.75;4958941;28;51123;-49
2021/11/13 07:22:32;;;;;;;;;1.00;1.00;;;;;19.90;40.65;101110.50;4963553;28;51336;-53
2021/11/13 07:24:57;;;;;;;;;0.50;0.50;;;;;19.89;40.84;101112.41;4968831;28;51312;-51
2021/11/13 07:27:23;;;;;;;;;0.25;0.25;;;;;19.88;40.82;101121.72;4979703;28;51377;-54
2021/11/13 07:29:58;;;;;;;;;1.00;1.00;;;;;19.89;40.96;101128.06;4970746;28;51086;-48
2021/11/13 07:32:24;;;;;;;;;1.00;1.00;;;;;19.88;40.76;101123.63;4956545;28;51224;-47
2021/11/13 07:34:50;;;;;;;;;0.00;0.00;;;;;19.88;40.69;101131.88;4958036;28;51039;-53
2021/11/13 07:37:16;;;;;;;;;1.00;1.00;;;;;19.87;41.16;101122.78;4969836;28;51084;-48
2021/11/13 07:39:41;;;;;;;;;0.00;0.00;;;;;19.87;41.10;101127.44;4959441;28;51324;-51
2021/11/13 07:42:07;;;;;;;;;0.25;0.25;;;;;19.85;41.18;101133.16;4968240;28;51191;-53
2021/11/13 07:44:33;;;;;;;;;1.00;1.00;;;;;19.86;41.18;101140.34;4959020;28;50900;-52
2021/11/13 07:46:58;;;;;;;;;0.50;0.50;;;;;19.86;40.86;101143.09;4967077;28;51627;-51
2021/11/13 07:49:23;;;;;;;;;2.00;0.00;;;;;19.85;41.12;101152.41;4954531;28;51211;-51
2021/11/13 07:51:49;;;;;;;;;0.25;0.25;;;;;19.84;41.03;101150.72;4960820;28;51440;-51
2021/11/13 07:54:16;;;;;;;;;0.00;0.00;;;;;19.84;41.01;101147.97;4966272;28;51366;-50
2021/11/13 07:56:41;;;;;;;;;0.75;0.75;;;;;19.85;41.05;101155.16;4965476;28;52007;-52
2021/11/13 07:59:06;;;;;;;;;1.75;1.00;;;;;19.83;41.00;101150.94;4961219;28;51128;-52
2021/11/13 08:01:32;;;;;;;;;1.00;1.00;;;;;19.83;41.18;101146.28;4967389;28;51089;-51
2021/11/13 08:03:57;;;;;;;;;1.00;1.00;;;;;19.83;41.34;101153.69;4963460;28;51493;-51
2021/11/13 08:06:23;;;;;;;;;0.75;0.75;;;;;19.81;41.59;101166.78;4958956;28;52103;-51
2021/11/13 08:08:48;;;;;;;;;0.50;0.50;;;;;19.82;42.15;101166.56;4971645;28;51062;-52
2021/11/13 08:11:15;;;;;;;;;0.25;0.25;;;;;19.80;42.49;101167.81;4969060;27;51187;-49
2021/11/13 08:13:42;;;;;;;;;1.50;1.50;;;;;19.80;42.64;101167.81;4959722;28;51244;-51
2021/11/13 08:16:08;;;;;;;;;3.00;2.25;;;;;19.78;43.35;101176.28;4958952;28;51045;-48
2021/11/13 08:18:33;;;;;;;;;0.25;0.25;;;;;19.76;43.58;101170.16;4973528;28;51152;-49
2021/11/13 08:21:00;;;;;;;;;1.00;1.00;;;;;19.75;43.63;101175.88;4968804;28;51196;-49
2021/11/13 08:23:26;;;;;;;;;0.50;0.00;;;;;19.73;43.82;101176.06;4958986;28;51339;-51
2021/11/13 08:25:52;;;;;;;;;3.25;1.00;;;;;19.73;44.10;101175.22;4958580;28;51851;-53
2021/11/13 08:28:19;;;;;;;;;1.50;0.50;;;;;19.72;43.86;101174.38;4971541;27;51315;-52
2021/11/13 08:30:45;;;;;;;;;1.25;1.00;;;;;19.68;44.40;101167.59;4969794;28;51436;-47
2021/11/13 08:33:11;;;;;;;;;3.00;1.00;;;;;19.67;44.26;101174.16;4962163;28;51265;-50
2021/11/13 08:35:39;;;;;;;;;4.25;1.00;;;;;19.65;44.58;101165.28;4957303;28;51933;-52
2021/11/13 08:38:05;;;;;;;;;1.00;1.00;;;;;19.65;44.52;101156.19;4958946;28;51424;-52
2021/11/13 08:40:31;;;;;;;;;1.00;1.00;;;;;19.70;44.79;101165.50;4961142;28;52504;-54
2021/11/13 08:42:57;;;;;;;;;1.00;1.00;;;;;19.77;45.09;101174.59;4954083;28;52568;-51
2021/11/13 08:45:22;;;;;;;;;1.00;0.50;;;;;19.87;45.09;101180.53;4961342;28;51075;-48
2021/11/13 08:47:48;;;;;;;;;1.50;0.50;;;;;19.97;44.78;101176.50;4963105;28;51262;-51
2021/11/13 08:50:19;;;;;;;;;1.00;1.00;;;;;20.07;44.66;101174.19;4957572;28;51117;-52
2021/11/13 08:52:47;;;;;;;;;2.00;1.50;;;;;20.18;44.65;101177.16;4958431;28;51665;-49
2021/11/13 08:55:13;;;;;;;;;2.00;1.00;;;;;20.30;44.79;101176.50;4962166;28;51885;-49
2021/11/13 08:57:40;;;;;;;;;1.75;1.00;;;;;20.39;44.32;101178.81;4953962;28;51309;-51
2021/11/13 09:00:06;;;;;;;;;1.00;1.00;;;;;20.50;44.16;101182.00;4960732;28;51181;-47
2021/11/13 09:02:32;;;;;;;;;0.75;0.50;;;;;20.58;44.43;101188.13;4957670;27;51287;-49
2021/11/13 09:04:58;;;;;;;;;1.00;1.00;;;;;20.68;44.09;101184.94;4958809;28;51608;-47
2021/11/13 09:07:25;;;;;;;;;0.25;0.25;;;;;20.75;44.55;101183.88;4956980;28;51254;-49
2021/11/13 09:09:50;;;;;;;;;1.00;1.00;;;;;20.84;44.34;101180.88;4963227;28;51153;-49
2021/11/13 09:12:22;;;;;;;;;2.25;2.00;;;;;20.92;44.19;101164.97;4952971;28;51169;-50
2021/11/13 09:14:49;;;;;;;;;2.50;0.00;;;;;21.02;43.77;101172.75;4954926;28;51129;-50
2021/11/13 09:17:15;;;;;;;;;0.25;0.25;;;;;21.09;43.90;101170.84;4956724;28;51753;-51
2021/11/13 09:19:40;;;;;;;;;2.00;1.00;;;;;21.18;43.88;101166.75;4954791;28;51146;-49
2021/11/13 09:22:06;;;;;;;;;0.75;0.75;;;;;21.26;43.53;101174.81;4972899;28;51053;-52
2021/11/13 09:24:31;;;;;;;;;0.25;0.00;;;;;21.35;43.48;101175.38;4967616;28;52531;-52
2021/11/13 09:26:57;;;;;;;;;1.25;1.00;;;;;21.43;43.24;101177.91;4967624;28;51090;-52
2021/11/13 09:29:22;;;;;;;;;1.25;1.25;;;;;21.51;43.32;101176.78;4955780;28;51199;-49
2021/11/13 09:31:48;;;;;;;;;4.00;1.00;;;;;21.56;42.97;101176.97;4954165;28;51378;-48
2021/11/13 09:34:17;;;;;;;;;1.00;0.00;;;;;21.57;43.14;101176.78;4956648;28;51865;-50
2021/11/13 09:36:43;;;;;;;;;2.75;1.00;;;;;21.58;42.85;101174.84;4959831;28;50925;-48
2021/11/13 09:39:09;;;;;;;;;1.50;1.00;;;;;21.59;42.89;101179.28;4959874;28;51877;-51
2021/11/13 09:41:35;;;;;;;;;2.75;1.00;;;;;21.58;42.96;101178.44;4970190;28;51485;-48
2021/11/13 09:44:01;;;;;;;;;0.00;0.00;;;;;21.59;42.95;101179.28;4962723;28;51006;-52
2021/11/13 09:46:28;;;;;;;;;0.00;0.00;;;;;21.59;42.63;101180.13;4963909;28;51012;-52
2021/11/13 09:48:55;;;;;;;;;1.75;1.00;;;;;21.61;42.96;101179.91;4965121;28;51148;-53
2021/11/13 09:51:22;;;;;;;;;2.25;1.00;;;;;21.66;42.52;101187.50;4962736;28;51270;-51
2021/11/13 09:53:49;;;;;;;;;2.25;1.00;;;;;21.72;42.66;101184.72;4964337;28;51067;-52
2021/11/13 09:56:14;;;;;;;;;1.25;0.00;;;;;21.77;42.16;101187.63;4956714;28;50936;-51
2021/11/13 09:58:40;;;;;;;;;0.75;0.75;;;;;21.84;42.52;101195.88;4957528;28;52557;-52
2021/11/13 10:01:06;;;;;;;;;1.00;1.00;;;;;21.87;41.88;101196.25;4953736;28;51252;-49
2021/11/13 10:03:33;;;;;;;;;0.50;0.50;;;;;21.91;42.50;101199.44;4966432;28;51805;-54
2021/11/13 10:06:02;;;;;;;;;3.00;1.00;;;;;21.93;42.45;101196.44;4972041;28;50978;-53
2021/11/13 10:08:28;;;;;;;;;3.00;1.00;;;;;21.95;42.51;101202.59;4961272;28;51122;-51
2021/11/13 10:10:58;;;;;;;;;0.00;0.00;;;;;21.96;42.40;101201.50;4958788;28;51325;-51
2021/11/13 10:13:53;;;;;;;;;0.25;0.00;;;;;21.99;41.90;101203.81;4956658;28;51818;-52
2021/11/13 10:16:22;;;;;;;;;1.00;1.00;;;;;22.02;42.09;101207.00;4953008;28;51441;-51
2021/11/13 10:18:52;;;;;;;;;0.00;0.00;;;;;22.06;42.13;101212.91;4959477;28;51372;-52
2021/11/13 10:21:23;;;;;;;;;1.00;1.00;;;;;22.08;41.53;101199.75;4953178;28;51386;-50
2021/11/13 10:23:51;;;;;;;;;0.00;0.00;;;;;22.11;42.01;101210.34;4952811;28;51056;-50
2021/11/13 10:26:24;;;;;;;;;1.50;1.00;;;;;22.14;41.69;101202.47;4965934;28;50966;-51
2021/11/13 10:29:04;;;;;;;;;1.00;1.00;;;;;22.16;41.58;101197.56;4963343;28;51169;-48
2021/11/13 10:31:42;;;;;;;;;1.00;1.00;;;;;22.17;41.79;101199.25;4953599;28;51192;-52
2021/11/13 10:34:13;;;;;;;;;3.00;0.25;;;;;22.20;41.37;101203.50;4967322;28;51795;-52
2021/11/13 10:36:42;;;;;;;;;1.25;0.50;;;;;22.20;40.92;101192.47;4955931;28;51291;-49
2021/11/13 10:39:17;;;;;;;;;0.25;0.00;;;;;22.22;40.83;101192.22;4964041;28;51169;-52
2021/11/13 10:41:47;;;;;;;;;1.50;1.00;;;;;22.26;41.41;101187.94;4959471;28;51075;-51
2021/11/13 10:44:15;;;;;;;;;0.00;0.00;;;;;22.30;40.75;101192.78;4967125;28;51159;-51
2021/11/13 10:46:44;;;;;;;;;0.00;0.00;;;;;22.33;41.12;101192.34;4967180;28;51184;-50
2021/11/13 10:49:10;;;;;;;;;1.50;1.00;;;;;22.34;41.17;101194.03;4962608;28;51219;-53
2021/11/13 10:51:38;;;;;;;;;2.75;0.75;;;;;22.33;40.73;101197.00;4971078;28;51942;-51
2021/11/13 10:54:14;;;;;;;;;4.75;1.00;;;;;22.32;41.11;101198.09;4961639;28;51257;-47
2021/11/13 10:56:46;;;;;;;;;3.00;1.00;;;;;22.29;40.75;101199.34;4961079;28;51050;-48
2021/11/13 10:59:13;;;;;;;;;2.25;1.75;;;;;22.27;41.03;101195.97;4956207;28;51211;-51
2021/11/13 11:01:45;;;;;;;;;1.00;1.00;;;;;22.28;41.07;101200.44;4954334;28;50999;-52
2021/11/13 11:04:16;;;;;;;;;1.75;1.50;;;;;22.31;40.97;101205.53;4957448;28;51155;-50
2021/11/13 11:06:50;;;;;;;;;2.25;2.00;;;;;22.36;41.12;101196.53;4971151;28;51019;-54
2021/11/13 11:09:23;;;;;;;;;1.00;1.00;;;;;22.42;40.91;101193.75;4962297;28;51034;-48
2021/11/13 11:11:52;;;;;;;;;3.00;2.00;;;;;22.42;40.99;101185.47;4969459;28;51336;-48
2021/11/13 11:14:21;;;;;;;;;2.00;2.00;;;;;22.40;40.93;101195.84;4958135;28;51982;-51
2021/11/13 11:16:53;;;;;;;;;1.00;1.00;;;;;22.37;41.27;101190.78;4958052;28;51466;-49
2021/11/13 11:19:26;;;;;;;;;1.75;1.50;;;;;22.33;41.12;101186.81;4961901;28;51354;-50
2021/11/13 11:21:59;;;;;;;;;1.00;1.00;;;;;22.25;40.87;101176.06;4968235;28;51140;-52